createdAt,value
2018-03-02T00:00:52.905Z,17.10
2018-03-02T00:01:52.875Z,19.20
2018-03-02T00:02:52.842Z,17.70
2018-03-02T00:03:52.816Z,18.40
2018-03-02T00:04:52.788Z,18.30
2018-03-02T00:05:52.768Z,18.60
2018-03-02T00:06:52.731Z,17.80
2018-03-02T00:07:52.716Z,19.00
2018-03-02T00:08:52.682Z,17.50
2018-03-02T00:09:52.685Z,18.30
2018-03-02T00:10:52.622Z,17.60
2018-03-02T00:11:52.589Z,17.70
2018-03-02T00:12:52.561Z,18.30
2018-03-02T00:13:52.533Z,18.60
2018-03-02T00:14:52.513Z,19.00
2018-03-02T00:15:52.476Z,17.80
2018-03-02T00:16:52.447Z,18.10
2018-03-02T00:17:52.419Z,19.10
2018-03-02T00:18:52.390Z,19.20
2018-03-02T00:19:52.370Z,19.90
2018-03-02T00:20:52.342Z,19.70
2018-03-02T00:21:52.313Z,18.60
2018-03-02T00:22:52.282Z,19.30
2018-03-02T00:23:52.253Z,19.10
2018-03-02T00:24:52.225Z,19.00
2018-03-02T00:25:52.196Z,19.00
2018-03-02T00:26:52.172Z,19.50
2018-03-02T00:27:52.137Z,18.70
2018-03-02T00:28:52.107Z,20.10
2018-03-02T00:29:52.086Z,20.00
2018-03-02T00:30:52.059Z,19.10
2018-03-02T00:31:52.023Z,19.50
2018-03-02T00:32:51.995Z,19.80
2018-03-02T00:33:51.976Z,19.60
2018-03-02T00:34:51.938Z,20.00
2018-03-02T00:35:51.910Z,19.50
2018-03-02T00:36:51.884Z,20.50
2018-03-02T00:37:51.860Z,21.40
2018-03-02T00:38:51.831Z,19.70
2018-03-02T00:39:51.799Z,20.60
2018-03-02T00:40:51.768Z,20.30
2018-03-02T00:41:51.748Z,19.40
2018-03-02T00:42:51.715Z,20.20
2018-03-02T00:43:51.688Z,20.70
2018-03-02T00:44:51.706Z,20.00
2018-03-02T00:45:51.631Z,20.30
2018-03-02T00:46:51.603Z,20.10
2018-03-02T00:47:51.569Z,19.50
2018-03-02T00:48:51.598Z,20.80
2018-03-02T00:49:51.522Z,20.80
2018-03-02T00:50:51.588Z,19.80
2018-03-02T00:51:51.456Z,20.70
2018-03-02T00:52:51.480Z,20.10
2018-03-02T00:53:51.402Z,20.60
2018-03-02T00:54:51.379Z,19.90
2018-03-02T00:55:51.352Z,21.10
2018-03-02T00:56:51.321Z,21.00
2018-03-02T00:57:51.289Z,21.10
2018-03-02T00:58:51.261Z,20.80
2018-03-02T00:59:51.229Z,21.60
2018-03-02T01:00:51.208Z,20.30
2018-03-02T01:01:51.173Z,21.20
2018-03-02T01:02:51.143Z,19.40
2018-03-02T01:03:51.118Z,20.30
2018-03-02T01:04:51.086Z,21.80
2018-03-02T01:05:51.059Z,20.90
2018-03-02T01:06:51.029Z,20.90
2018-03-02T01:07:51.008Z,21.40
2018-03-02T01:08:50.976Z,20.10
2018-03-02T01:09:50.946Z,21.50
2018-03-02T01:10:50.921Z,20.90
2018-03-02T01:11:50.889Z,22.10
2018-03-02T01:12:50.860Z,21.30
2018-03-02T01:13:50.838Z,20.90
2018-03-02T01:14:50.809Z,21.10
2018-03-02T01:15:50.781Z,21.30
2018-03-02T01:16:50.745Z,21.20
2018-03-02T01:17:50.720Z,21.70
2018-03-02T01:18:50.691Z,22.20
2018-03-02T01:19:50.666Z,20.70
2018-03-02T01:20:50.632Z,21.80
2018-03-02T01:21:50.601Z,21.80
2018-03-02T01:22:50.575Z,21.80
2018-03-02T01:23:50.548Z,22.40
2018-03-02T01:24:50.521Z,21.00
2018-03-02T01:25:50.491Z,21.90
2018-03-02T01:26:50.589Z,21.60
2018-03-02T01:27:50.436Z,22.10
2018-03-02T01:28:50.406Z,21.90
2018-03-02T01:29:50.381Z,22.90
2018-03-02T01:30:50.348Z,22.20
2018-03-02T01:31:50.319Z,22.40
2018-03-02T01:32:50.289Z,22.20
2018-03-02T01:33:50.272Z,22.30
2018-03-02T01:34:50.238Z,22.00
2018-03-02T01:35:50.222Z,20.90
2018-03-02T01:36:50.180Z,23.80
2018-03-02T01:37:50.180Z,23.10
2018-03-02T01:38:50.116Z,22.30
2018-03-02T01:39:50.193Z,21.60
2018-03-02T01:40:50.060Z,22.40
2018-03-02T01:41:50.090Z,22.30
2018-03-02T01:42:50.056Z,22.80
2018-03-02T01:43:49.976Z,22.20
2018-03-02T01:44:49.948Z,24.40
2018-03-02T01:45:50.020Z,23.10
2018-03-02T01:46:49.890Z,22.70
2018-03-02T01:47:49.871Z,22.60
2018-03-02T01:48:49.841Z,24.60
2018-03-02T01:49:49.954Z,24.00
2018-03-02T01:50:49.775Z,23.30
2018-03-02T01:51:49.746Z,22.60
2018-03-02T01:52:49.719Z,22.30
2018-03-02T01:53:49.798Z,23.80
2018-03-02T01:54:49.677Z,24.10
2018-03-02T01:55:49.776Z,23.30
2018-03-02T01:56:49.603Z,25.20
2018-03-02T01:57:49.702Z,23.40
2018-03-02T01:58:49.546Z,24.00
2018-03-02T01:59:49.523Z,22.80
2018-03-02T02:00:49.489Z,23.30
2018-03-02T02:01:49.461Z,22.20
2018-03-02T02:02:49.437Z,23.10
2018-03-02T02:03:49.405Z,24.70
2018-03-02T02:04:49.379Z,23.20
2018-03-02T02:05:49.345Z,22.70
2018-03-02T02:06:49.319Z,25.10
2018-03-02T02:07:49.293Z,24.30
2018-03-02T02:08:49.261Z,24.50
2018-03-02T02:09:49.253Z,23.50
2018-03-02T02:10:49.209Z,24.90
2018-03-02T02:11:49.174Z,24.20
2018-03-02T02:12:49.150Z,23.90
2018-03-02T02:13:49.119Z,25.10
2018-03-02T02:14:49.089Z,24.70
2018-03-02T02:15:49.067Z,25.30
2018-03-02T02:16:49.032Z,25.20
2018-03-02T02:17:49.008Z,23.80
2018-03-02T02:18:48.980Z,25.80
2018-03-02T02:19:48.945Z,24.30
2018-03-02T02:20:48.918Z,26.30
2018-03-02T02:21:48.889Z,25.50
2018-03-02T02:22:48.860Z,25.60
2018-03-02T02:23:48.832Z,24.20
2018-03-02T02:24:48.808Z,25.90
2018-03-02T02:25:48.772Z,26.20
2018-03-02T02:26:48.747Z,26.50
2018-03-02T02:27:48.720Z,25.10
2018-03-02T02:28:48.684Z,26.20
2018-03-02T02:29:48.663Z,26.20
2018-03-02T02:30:48.682Z,25.60
2018-03-02T02:31:48.604Z,26.00
2018-03-02T02:32:48.671Z,25.40
2018-03-02T02:33:48.544Z,25.70
2018-03-02T02:34:48.566Z,24.70
2018-03-02T02:35:48.489Z,24.90
2018-03-02T02:36:48.558Z,25.80
2018-03-02T02:37:48.428Z,26.10
2018-03-02T02:38:48.413Z,27.10
2018-03-02T02:39:48.376Z,26.20
2018-03-02T02:40:48.392Z,26.30
2018-03-02T02:41:48.313Z,26.30
2018-03-02T02:42:48.338Z,26.80
2018-03-02T02:43:48.257Z,24.80
2018-03-02T02:44:48.240Z,26.70
2018-03-02T02:45:48.201Z,25.40
2018-03-02T02:46:48.172Z,26.60
2018-03-02T02:47:48.144Z,27.30
2018-03-02T02:48:48.115Z,27.20
2018-03-02T02:49:48.095Z,27.50
2018-03-02T02:50:48.057Z,26.90
2018-03-02T02:51:48.040Z,27.40
2018-03-02T02:52:48.000Z,27.40
2018-03-02T02:53:47.973Z,27.40
2018-03-02T02:54:47.954Z,26.70
2018-03-02T02:55:47.924Z,26.10
2018-03-02T02:56:47.882Z,26.20
2018-03-02T02:57:47.863Z,26.00
2018-03-02T02:58:47.831Z,28.00
2018-03-02T02:59:47.796Z,27.70
2018-03-02T03:00:47.781Z,27.50
2018-03-02T03:01:47.740Z,26.60
2018-03-02T03:02:47.710Z,26.40
2018-03-02T03:03:47.679Z,27.80
2018-03-02T03:04:47.656Z,27.00
2018-03-02T03:05:47.621Z,27.50
2018-03-02T03:06:47.590Z,27.30
2018-03-02T03:07:47.569Z,26.80
2018-03-02T03:08:47.542Z,29.00
2018-03-02T03:09:47.514Z,27.60
2018-03-02T03:10:47.475Z,27.20
2018-03-02T03:11:47.452Z,27.70
2018-03-02T03:12:47.420Z,28.90
2018-03-02T03:13:47.401Z,29.20
2018-03-02T03:14:47.364Z,27.40
2018-03-02T03:15:47.338Z,26.60
2018-03-02T03:16:47.307Z,29.10
2018-03-02T03:17:47.276Z,28.40
2018-03-02T03:18:47.243Z,27.20
2018-03-02T03:19:47.220Z,29.40
2018-03-02T03:20:47.189Z,29.20
2018-03-02T03:21:47.160Z,28.60
2018-03-02T03:22:47.132Z,29.10
2018-03-02T03:23:47.106Z,28.40
2018-03-02T03:24:47.069Z,26.90
2018-03-02T03:25:47.049Z,27.80
2018-03-02T03:26:47.011Z,28.60
2018-03-02T03:27:47.042Z,29.30
2018-03-02T03:28:46.959Z,29.50
2018-03-02T03:29:46.928Z,28.50
2018-03-02T03:30:46.896Z,28.50
2018-03-02T03:31:46.896Z,28.80
2018-03-02T03:32:46.839Z,28.30
2018-03-02T03:33:46.821Z,28.80
2018-03-02T03:34:46.781Z,28.90
2018-03-02T03:35:46.826Z,29.00
2018-03-02T03:36:46.720Z,29.40
2018-03-02T03:37:46.830Z,27.40
2018-03-02T03:38:46.664Z,28.30
2018-03-02T03:39:46.639Z,29.50
2018-03-02T03:40:46.611Z,28.10
2018-03-02T03:41:46.577Z,29.30
2018-03-02T03:42:46.548Z,29.20
2018-03-02T03:43:46.544Z,28.90
2018-03-02T03:44:46.490Z,30.10
2018-03-02T03:45:46.466Z,28.50
2018-03-02T03:46:46.429Z,29.30
2018-03-02T03:47:46.403Z,28.50
2018-03-02T03:48:46.374Z,28.80
2018-03-02T03:49:46.347Z,28.10
2018-03-02T03:50:46.315Z,30.30
2018-03-02T03:51:46.289Z,30.20
2018-03-02T03:52:46.260Z,28.60
2018-03-02T03:53:46.231Z,28.70
2018-03-02T03:54:46.198Z,28.80
2018-03-02T03:55:46.169Z,30.20
2018-03-02T03:56:46.148Z,29.10
2018-03-02T03:57:46.120Z,29.30
2018-03-02T03:58:46.084Z,31.20
2018-03-02T03:59:46.057Z,29.40
2018-03-02T04:00:46.025Z,29.50
2018-03-02T04:01:46.000Z,29.50
2018-03-02T04:02:45.968Z,30.20
2018-03-02T04:03:45.940Z,28.70
2018-03-02T04:04:45.919Z,29.00
2018-03-02T04:05:45.884Z,30.40
2018-03-02T04:06:45.849Z,30.40
2018-03-02T04:07:45.825Z,30.00
2018-03-02T04:08:45.794Z,31.00
2018-03-02T04:09:45.766Z,29.60
2018-03-02T04:10:45.739Z,30.50
2018-03-02T04:11:45.709Z,29.20
2018-03-02T04:12:45.681Z,29.80
2018-03-02T04:13:45.652Z,29.50
2018-03-02T04:14:45.621Z,30.60
2018-03-02T04:15:45.591Z,28.90
2018-03-02T04:16:45.572Z,29.30
2018-03-02T04:17:45.534Z,29.00
2018-03-02T04:18:45.515Z,29.40
2018-03-02T04:19:45.480Z,31.30
2018-03-02T04:20:45.448Z,30.40
2018-03-02T04:21:45.422Z,29.70
2018-03-02T04:22:45.388Z,31.30
2018-03-02T04:23:45.359Z,30.40
2018-03-02T04:24:45.335Z,31.60
2018-03-02T04:25:45.313Z,30.90
2018-03-02T04:26:45.272Z,30.80
2018-03-02T04:27:45.239Z,31.40
2018-03-02T04:28:45.210Z,30.10
2018-03-02T04:29:45.181Z,30.70
2018-03-02T04:30:45.152Z,28.80
2018-03-02T04:31:45.128Z,30.60
2018-03-02T04:32:45.095Z,32.00
2018-03-02T04:33:45.066Z,30.70
2018-03-02T04:34:45.039Z,29.80
2018-03-02T04:35:45.010Z,30.40
2018-03-02T04:36:44.981Z,31.00
2018-03-02T04:37:44.951Z,31.60
2018-03-02T04:38:44.920Z,30.20
2018-03-02T04:39:44.888Z,29.70
2018-03-02T04:40:44.858Z,31.20
2018-03-02T04:41:44.829Z,31.30
2018-03-02T04:42:44.800Z,32.40
2018-03-02T04:43:44.771Z,30.80
2018-03-02T04:44:44.747Z,30.90
2018-03-02T04:45:44.719Z,33.00
2018-03-02T04:46:44.689Z,32.20
2018-03-02T04:47:44.655Z,31.40
2018-03-02T04:48:44.630Z,30.80
2018-03-02T04:49:44.597Z,30.50
2018-03-02T04:50:44.568Z,30.90
2018-03-02T04:51:44.538Z,30.50
2018-03-02T04:52:44.509Z,30.70
2018-03-02T04:53:44.484Z,30.20
2018-03-02T04:54:44.451Z,30.60
2018-03-02T04:55:44.421Z,30.90
2018-03-02T04:56:44.394Z,30.10
2018-03-02T04:57:44.417Z,32.00
2018-03-02T04:58:44.339Z,32.20
2018-03-02T04:59:44.310Z,30.90
2018-03-02T05:00:44.278Z,31.40
2018-03-02T05:01:44.251Z,31.70
2018-03-02T05:02:44.219Z,32.30
2018-03-02T05:03:44.193Z,32.00
2018-03-02T05:04:44.161Z,31.50
2018-03-02T05:05:44.126Z,30.70
2018-03-02T05:06:44.100Z,29.50
2018-03-02T05:07:44.066Z,31.30
2018-03-02T05:08:44.042Z,32.10
2018-03-02T05:09:44.008Z,31.70
2018-03-02T05:10:43.980Z,31.60
2018-03-02T05:11:43.954Z,31.60
2018-03-02T05:12:43.919Z,31.70
2018-03-02T05:13:43.891Z,30.20
2018-03-02T05:14:43.865Z,31.10
2018-03-02T05:15:43.834Z,31.00
2018-03-02T05:16:43.811Z,32.90
2018-03-02T05:17:43.777Z,31.80
2018-03-02T05:18:43.753Z,31.10
2018-03-02T05:19:43.717Z,31.80
2018-03-02T05:20:43.687Z,30.40
2018-03-02T05:21:43.663Z,32.20
2018-03-02T05:22:43.625Z,32.00
2018-03-02T05:23:43.600Z,30.50
2018-03-02T05:24:43.570Z,30.50
2018-03-02T05:25:43.537Z,31.40
2018-03-02T05:26:43.509Z,30.80
2018-03-02T05:27:43.480Z,32.00
2018-03-02T05:28:43.451Z,32.00
2018-03-02T05:29:43.427Z,29.90
2018-03-02T05:30:43.400Z,31.80
2018-03-02T05:31:43.362Z,31.40
2018-03-02T05:32:43.338Z,31.70
2018-03-02T05:33:43.306Z,32.10
2018-03-02T05:34:43.276Z,32.80
2018-03-02T05:35:43.252Z,31.60
2018-03-02T05:36:43.217Z,31.70
2018-03-02T05:37:43.192Z,31.70
2018-03-02T05:38:43.158Z,32.10
2018-03-02T05:39:43.144Z,31.90
2018-03-02T05:40:43.148Z,32.10
2018-03-02T05:41:43.084Z,31.90
2018-03-02T05:42:43.045Z,32.10
2018-03-02T05:43:43.015Z,33.30
2018-03-02T05:44:43.082Z,31.20
2018-03-02T05:45:42.951Z,31.10
2018-03-02T05:46:42.983Z,32.60
2018-03-02T05:47:42.893Z,32.80
2018-03-02T05:48:42.923Z,32.00
2018-03-02T05:49:42.832Z,30.10
2018-03-02T05:50:42.887Z,31.10
2018-03-02T05:51:42.779Z,31.10
2018-03-02T05:52:42.750Z,30.40
2018-03-02T05:53:42.721Z,31.90
2018-03-02T05:54:42.737Z,32.60
2018-03-02T05:55:42.662Z,32.30
2018-03-02T05:56:42.631Z,31.90
2018-03-02T05:57:42.601Z,31.40
2018-03-02T05:58:42.572Z,31.80
2018-03-02T05:59:42.543Z,33.00
2018-03-02T06:00:42.506Z,31.90
2018-03-02T06:01:42.494Z,32.80
2018-03-02T06:02:42.465Z,33.10
2018-03-02T06:03:42.422Z,32.40
2018-03-02T06:04:42.391Z,31.60
2018-03-02T06:05:42.361Z,31.90
2018-03-02T06:06:42.332Z,33.20
2018-03-02T06:07:42.306Z,34.40
2018-03-02T06:08:42.272Z,32.70
2018-03-02T06:09:42.243Z,32.50
2018-03-02T06:10:42.210Z,32.90
2018-03-02T06:11:42.180Z,32.20
2018-03-02T06:12:42.155Z,33.50
2018-03-02T06:13:42.125Z,34.50
2018-03-02T06:14:42.147Z,30.90
2018-03-02T06:15:42.061Z,32.70
2018-03-02T06:16:42.043Z,35.20
2018-03-02T06:17:42.007Z,33.00
2018-03-02T06:18:41.976Z,32.30
2018-03-02T06:19:41.945Z,32.50
2018-03-02T06:20:41.917Z,33.20
2018-03-02T06:21:41.890Z,35.10
2018-03-02T06:22:41.865Z,32.70
2018-03-02T06:23:41.828Z,35.10
2018-03-02T06:24:41.800Z,32.50
2018-03-02T06:25:41.767Z,32.60
2018-03-02T06:26:41.752Z,32.60
2018-03-02T06:27:41.705Z,35.00
2018-03-02T06:28:41.679Z,32.30
2018-03-02T06:29:41.657Z,34.20
2018-03-02T06:30:41.618Z,34.70
2018-03-02T06:31:41.691Z,33.80
2018-03-02T06:32:41.560Z,31.70
2018-03-02T06:33:41.614Z,32.20
2018-03-02T06:34:41.500Z,35.20
2018-03-02T06:35:41.470Z,31.30
2018-03-02T06:36:41.441Z,32.80
2018-03-02T06:37:41.424Z,32.10
2018-03-02T06:38:41.380Z,32.20
2018-03-02T06:39:41.424Z,35.10
2018-03-02T06:40:41.322Z,34.70
2018-03-02T06:41:41.296Z,34.90
2018-03-02T06:42:41.264Z,32.00
2018-03-02T06:43:41.242Z,33.40
2018-03-02T06:44:41.210Z,33.70
2018-03-02T06:45:41.228Z,34.00
2018-03-02T06:46:41.151Z,33.80
2018-03-02T06:47:41.118Z,32.80
2018-03-02T06:48:41.101Z,33.70
2018-03-02T06:49:41.074Z,33.90
2018-03-02T06:50:41.033Z,33.80
2018-03-02T06:51:41.009Z,33.60
2018-03-02T06:52:40.975Z,33.70
2018-03-02T06:53:40.949Z,33.50
2018-03-02T06:54:40.937Z,35.10
2018-03-02T06:55:40.910Z,34.10
2018-03-02T06:56:40.871Z,34.90
2018-03-02T06:57:40.843Z,35.90
2018-03-02T06:58:40.842Z,36.10
2018-03-02T06:59:40.787Z,35.90
2018-03-02T07:00:40.764Z,37.50
2018-03-02T07:01:40.738Z,36.00
2018-03-02T07:02:40.709Z,36.50
2018-03-02T07:03:40.684Z,33.70
2018-03-02T07:04:40.669Z,36.70
2018-03-02T07:05:40.632Z,34.20
2018-03-02T07:06:40.612Z,33.40
2018-03-02T07:07:40.586Z,35.70
2018-03-02T07:08:40.558Z,35.00
2018-03-02T07:09:40.530Z,35.10
2018-03-02T07:10:40.530Z,34.90
2018-03-02T07:11:40.480Z,35.90
2018-03-02T07:12:40.458Z,35.00
2018-03-02T07:13:40.433Z,35.60
2018-03-02T07:14:40.411Z,36.00
2018-03-02T07:15:40.382Z,35.60
2018-03-02T07:16:40.361Z,36.30
2018-03-02T07:17:40.340Z,34.20
2018-03-02T07:18:40.315Z,33.70
2018-03-02T07:19:40.291Z,35.60
2018-03-02T07:20:40.267Z,35.20
2018-03-02T07:21:40.256Z,36.00
2018-03-02T07:22:40.222Z,34.20
2018-03-02T07:23:40.201Z,36.00
2018-03-02T07:24:40.178Z,35.20
2018-03-02T07:25:40.159Z,35.00
2018-03-02T07:26:40.129Z,34.80
2018-03-02T07:27:40.109Z,35.20
2018-03-02T07:28:40.137Z,35.00
2018-03-02T07:29:40.060Z,34.40
2018-03-02T07:30:40.038Z,36.10
2018-03-02T07:31:40.024Z,35.60
2018-03-02T07:32:40.002Z,35.30
2018-03-02T07:33:39.979Z,35.50
2018-03-02T07:34:39.951Z,35.00
2018-03-02T07:35:39.930Z,35.20
2018-03-02T07:36:39.926Z,35.50
2018-03-02T07:37:39.890Z,36.60
2018-03-02T07:38:39.874Z,35.90
2018-03-02T07:39:39.849Z,36.10
2018-03-02T07:40:39.832Z,36.50
2018-03-02T07:41:39.809Z,37.50
2018-03-02T07:42:39.813Z,36.00
2018-03-02T07:43:39.770Z,36.80
2018-03-02T07:44:39.805Z,35.20
2018-03-02T07:45:39.734Z,35.90
2018-03-02T07:46:39.720Z,35.70
2018-03-02T07:47:39.697Z,37.10
2018-03-02T07:48:39.727Z,36.80
2018-03-02T07:49:39.660Z,36.30
2018-03-02T07:50:39.688Z,36.90
2018-03-02T07:51:39.627Z,43.40
2018-03-02T07:52:39.604Z,50.70
2018-03-02T07:53:39.578Z,41.50
2018-03-02T07:54:39.617Z,36.80
2018-03-02T07:55:39.548Z,36.50
2018-03-02T07:56:39.530Z,37.60
2018-03-02T07:57:39.509Z,36.30
2018-03-02T07:58:39.511Z,38.10
2018-03-02T07:59:39.469Z,34.50
2018-03-02T08:00:39.500Z,36.30
2018-03-02T08:01:39.431Z,35.90
2018-03-02T08:02:39.418Z,36.20
2018-03-02T08:03:39.401Z,36.20
2018-03-02T08:04:39.381Z,37.10
2018-03-02T08:05:39.361Z,37.10
2018-03-02T08:06:39.345Z,36.60
2018-03-02T08:07:39.329Z,36.80
2018-03-02T08:08:39.313Z,36.60
2018-03-02T08:09:39.301Z,36.30
2018-03-02T08:10:39.275Z,37.00
2018-03-02T08:11:39.263Z,37.80
2018-03-02T08:12:39.243Z,35.90
2018-03-02T08:13:39.233Z,38.50
2018-03-02T08:14:39.213Z,37.50
2018-03-02T08:15:39.198Z,36.30
2018-03-02T08:16:39.179Z,35.90
2018-03-02T08:17:39.168Z,37.70
2018-03-02T08:18:39.151Z,36.90
2018-03-02T08:19:39.139Z,37.30
2018-03-02T08:20:39.119Z,36.40
2018-03-02T08:21:39.115Z,37.90
2018-03-02T08:22:39.092Z,36.90
2018-03-02T08:23:39.080Z,36.70
2018-03-02T08:24:39.062Z,37.40
2018-03-02T08:25:39.048Z,38.10
2018-03-02T08:26:39.031Z,37.60
2018-03-02T08:27:39.024Z,45.20
2018-03-02T08:28:39.002Z,38.00
2018-03-02T08:29:38.987Z,36.20
2018-03-02T08:30:38.971Z,37.10
2018-03-02T08:31:38.969Z,37.90
2018-03-02T08:32:38.945Z,36.90
2018-03-02T08:33:38.931Z,37.20
2018-03-02T08:34:38.920Z,36.50
2018-03-02T08:35:38.910Z,37.40
2018-03-02T08:36:38.891Z,37.20
2018-03-02T08:37:38.878Z,37.80
2018-03-02T08:38:38.878Z,36.90
2018-03-02T08:39:38.854Z,38.20
2018-03-02T08:40:38.836Z,37.10
2018-03-02T08:41:38.830Z,41.20
2018-03-02T08:42:38.821Z,79.60
2018-03-02T08:43:38.843Z,37.60
2018-03-02T08:44:38.788Z,41.40
2018-03-02T08:45:38.773Z,39.80
2018-03-02T08:46:38.761Z,38.20
2018-03-02T08:47:39.002Z,39.20
2018-03-02T08:48:38.740Z,39.40
2018-03-02T08:49:38.727Z,39.10
2018-03-02T08:50:38.711Z,41.90
2018-03-02T08:51:38.700Z,40.40
2018-03-02T08:52:38.702Z,38.30
2018-03-02T08:53:38.671Z,38.00
2018-03-02T08:54:38.659Z,37.60
2018-03-02T08:55:38.652Z,37.30
2018-03-02T08:56:38.638Z,36.50
2018-03-02T08:57:38.632Z,37.20
2018-03-02T08:58:38.610Z,37.80
2018-03-02T08:59:38.615Z,37.00
2018-03-02T09:00:38.586Z,36.70
2018-03-02T09:01:38.572Z,36.40
2018-03-02T09:02:38.568Z,37.70
2018-03-02T09:03:38.550Z,37.70
2018-03-02T09:04:38.599Z,36.50
2018-03-02T09:05:38.541Z,37.60
2018-03-02T09:06:38.520Z,37.80
2018-03-02T09:07:38.512Z,37.90
2018-03-02T09:08:38.486Z,36.60
2018-03-02T09:09:38.567Z,36.60
2018-03-02T09:10:38.458Z,37.40
2018-03-02T09:11:38.447Z,37.00
2018-03-02T09:12:38.471Z,37.10
2018-03-02T09:13:38.531Z,36.80
2018-03-02T09:14:38.410Z,37.30
2018-03-02T09:15:38.495Z,36.70
2018-03-02T09:16:38.386Z,36.60
2018-03-02T09:17:38.378Z,36.90
2018-03-02T09:18:38.366Z,36.30
2018-03-02T09:19:38.451Z,36.20
2018-03-02T09:20:38.342Z,37.60
2018-03-02T09:21:38.432Z,36.70
2018-03-02T09:22:38.314Z,36.60
2018-03-02T09:23:38.363Z,36.40
2018-03-02T09:24:38.298Z,36.70
2018-03-02T09:25:38.374Z,36.40
2018-03-02T09:26:38.263Z,36.90
2018-03-02T09:27:38.301Z,37.30
2018-03-02T09:28:38.243Z,37.90
2018-03-02T09:29:38.272Z,37.10
2018-03-02T09:30:38.209Z,37.20
2018-03-02T09:31:38.253Z,37.80
2018-03-02T09:32:38.185Z,37.90
2018-03-02T09:33:38.171Z,37.00
2018-03-02T09:34:38.159Z,38.10
2018-03-02T09:35:38.199Z,37.00
2018-03-02T09:36:38.133Z,37.70
2018-03-02T09:37:38.114Z,36.20
2018-03-02T09:38:38.099Z,37.70
2018-03-02T09:39:38.084Z,38.80
2018-03-02T09:40:38.093Z,37.40
2018-03-02T09:41:38.056Z,36.90
2018-03-02T09:42:38.041Z,38.20
2018-03-02T09:43:38.024Z,36.00
2018-03-02T09:44:38.009Z,37.50
2018-03-02T09:45:38.000Z,36.60
2018-03-02T09:46:37.978Z,35.20
2018-03-02T09:47:37.963Z,35.30
2018-03-02T09:48:37.939Z,37.50
2018-03-02T09:49:37.930Z,36.60
2018-03-02T09:50:37.907Z,37.40
2018-03-02T09:51:37.900Z,36.50
2018-03-02T09:52:37.881Z,37.20
2018-03-02T09:53:37.861Z,42.10
2018-03-02T09:54:37.841Z,43.00
2018-03-02T09:55:37.835Z,38.50
2018-03-02T09:56:37.809Z,37.60
2018-03-02T09:57:37.795Z,36.90
2018-03-02T09:58:37.790Z,37.40
2018-03-02T09:59:37.770Z,39.20
2018-03-02T10:00:37.749Z,38.50
2018-03-02T10:01:37.729Z,38.20
2018-03-02T10:02:37.721Z,38.90
2018-03-02T10:03:37.701Z,37.00
2018-03-02T10:04:37.773Z,37.90
2018-03-02T10:05:37.667Z,38.80
2018-03-02T10:06:37.650Z,37.80
2018-03-02T10:07:37.688Z,37.80
2018-03-02T10:08:37.623Z,38.50
2018-03-02T10:09:37.602Z,37.90
2018-03-02T10:10:37.588Z,38.60
2018-03-02T10:11:37.569Z,38.50
2018-03-02T10:12:37.556Z,38.60
2018-03-02T10:13:37.543Z,37.40
2018-03-02T10:14:37.529Z,38.40
2018-03-02T10:15:37.513Z,38.20
2018-03-02T10:16:37.493Z,37.00
2018-03-02T10:17:37.475Z,38.20
2018-03-02T10:18:37.463Z,38.60
2018-03-02T10:19:37.450Z,37.90
2018-03-02T10:20:37.428Z,38.60
2018-03-02T10:21:37.414Z,37.90
2018-03-02T10:22:37.400Z,38.10
2018-03-02T10:23:37.385Z,38.50
2018-03-02T10:24:37.365Z,37.60
2018-03-02T10:25:37.353Z,37.20
2018-03-02T10:26:37.330Z,37.90
2018-03-02T10:27:37.316Z,37.80
2018-03-02T10:28:37.296Z,38.00
2018-03-02T10:29:37.284Z,38.30
2018-03-02T10:30:37.264Z,38.00
2018-03-02T10:31:37.252Z,37.40
2018-03-02T10:32:37.237Z,36.60
2018-03-02T10:33:37.220Z,37.00
2018-03-02T10:34:37.201Z,37.40
2018-03-02T10:35:37.180Z,36.30
2018-03-02T10:36:37.166Z,37.20
2018-03-02T10:37:37.151Z,37.40
2018-03-02T10:38:37.136Z,37.80
2018-03-02T10:39:37.123Z,38.40
2018-03-02T10:40:37.098Z,37.50
2018-03-02T10:41:37.090Z,36.00
2018-03-02T10:42:37.070Z,38.10
2018-03-02T10:43:37.048Z,37.70
2018-03-02T10:44:37.033Z,37.80
2018-03-02T10:45:37.023Z,37.70
2018-03-02T10:46:37.000Z,37.80
2018-03-02T10:47:36.979Z,37.60
2018-03-02T10:48:36.964Z,36.80
2018-03-02T10:49:36.948Z,37.50
2018-03-02T10:50:36.928Z,37.40
2018-03-02T10:51:36.910Z,37.50
2018-03-02T10:52:36.894Z,37.40
2018-03-02T10:53:36.876Z,36.90
2018-03-02T10:54:36.855Z,37.80
2018-03-02T10:55:36.841Z,38.50
2018-03-02T10:56:36.824Z,39.10
2018-03-02T10:57:36.803Z,37.60
2018-03-02T10:58:36.787Z,37.20
2018-03-02T10:59:36.769Z,35.80
2018-03-02T11:00:36.752Z,36.70
2018-03-02T11:01:36.731Z,36.60
2018-03-02T11:02:36.720Z,37.80
2018-03-02T11:03:36.698Z,38.10
2018-03-02T11:04:36.680Z,36.90
2018-03-02T11:05:36.659Z,36.90
2018-03-02T11:06:36.642Z,36.50
2018-03-02T11:07:36.629Z,35.60
2018-03-02T11:08:36.608Z,35.40
2018-03-02T11:09:36.596Z,37.20
2018-03-02T11:10:36.569Z,36.30
2018-03-02T11:11:36.550Z,36.80
2018-03-02T11:12:36.533Z,35.60
2018-03-02T11:13:36.523Z,37.60
2018-03-02T11:14:36.499Z,36.90
2018-03-02T11:15:36.476Z,36.20
2018-03-02T11:16:36.456Z,36.90
2018-03-02T11:17:36.436Z,36.00
2018-03-02T11:18:36.416Z,36.10
2018-03-02T11:19:36.399Z,36.80
2018-03-02T11:20:36.378Z,36.10
2018-03-02T11:21:36.359Z,36.80
2018-03-02T11:22:36.340Z,35.60
2018-03-02T11:23:36.325Z,36.90
2018-03-02T11:24:36.303Z,38.20
2018-03-02T11:25:36.288Z,35.00
2018-03-02T11:26:36.274Z,36.90
2018-03-02T11:27:36.249Z,36.50
2018-03-02T11:28:36.243Z,37.80
2018-03-02T11:29:36.210Z,36.00
2018-03-02T11:30:36.195Z,38.20
2018-03-02T11:31:36.168Z,37.90
2018-03-02T11:32:36.154Z,35.90
2018-03-02T11:33:36.138Z,35.70
2018-03-02T11:34:36.121Z,37.60
2018-03-02T11:35:36.142Z,36.90
2018-03-02T11:36:36.073Z,37.20
2018-03-02T11:37:36.056Z,36.80
2018-03-02T11:38:36.033Z,38.00
2018-03-02T11:39:36.022Z,37.00
2018-03-02T11:40:36.010Z,36.40
2018-03-02T11:41:35.985Z,37.70
2018-03-02T11:42:35.962Z,36.60
2018-03-02T11:43:35.942Z,36.50
2018-03-02T11:44:35.926Z,36.50
2018-03-02T11:45:35.899Z,37.40
2018-03-02T11:46:35.882Z,37.20
2018-03-02T11:47:35.865Z,37.80
2018-03-02T11:48:35.843Z,37.30
2018-03-02T11:49:35.825Z,38.90
2018-03-02T11:50:35.810Z,37.80
2018-03-02T11:51:35.792Z,36.70
2018-03-02T11:52:35.815Z,37.30
2018-03-02T11:53:35.754Z,37.20
2018-03-02T11:54:35.724Z,37.60
2018-03-02T11:55:35.702Z,37.50
2018-03-02T11:56:35.684Z,38.70
2018-03-02T11:57:35.669Z,38.50
2018-03-02T11:58:35.646Z,35.80
2018-03-02T11:59:35.624Z,37.30
2018-03-02T12:00:35.600Z,36.90
2018-03-02T12:01:35.588Z,38.50
2018-03-02T12:02:35.568Z,37.20
2018-03-02T12:03:35.548Z,36.90
2018-03-02T12:04:35.526Z,37.80
2018-03-02T12:05:35.508Z,38.10
2018-03-02T12:06:35.491Z,37.50
2018-03-02T12:07:35.471Z,37.60
2018-03-02T12:08:35.445Z,38.10
2018-03-02T12:09:35.422Z,39.00
2018-03-02T12:10:35.420Z,36.60
2018-03-02T12:11:35.384Z,39.00
2018-03-02T12:12:35.365Z,38.00
2018-03-02T12:13:35.338Z,38.50
2018-03-02T12:14:35.318Z,38.40
2018-03-02T12:15:35.307Z,39.70
2018-03-02T12:16:35.279Z,43.30
2018-03-02T12:17:35.258Z,36.00
2018-03-02T12:18:35.242Z,37.70
2018-03-02T12:19:35.222Z,38.20
2018-03-02T12:20:35.197Z,37.70
2018-03-02T12:21:35.179Z,37.50
2018-03-02T12:22:35.163Z,37.20
2018-03-02T12:23:35.138Z,38.50
2018-03-02T12:24:35.114Z,38.50
2018-03-02T12:25:35.100Z,38.30
2018-03-02T12:26:35.080Z,37.70
2018-03-02T12:27:35.054Z,38.10
2018-03-02T12:28:35.101Z,38.90
2018-03-02T12:29:35.015Z,38.80
2018-03-02T12:30:34.994Z,38.00
2018-03-02T12:31:34.975Z,37.20
2018-03-02T12:32:34.955Z,39.30
2018-03-02T12:33:34.941Z,38.30
2018-03-02T12:34:34.929Z,37.90
2018-03-02T12:35:34.900Z,39.10
2018-03-02T12:36:34.884Z,38.60
2018-03-02T12:37:34.863Z,38.20
2018-03-02T12:38:34.849Z,39.40
2018-03-02T12:39:34.828Z,37.60
2018-03-02T12:40:34.808Z,38.20
2018-03-02T12:41:34.782Z,39.10
2018-03-02T12:42:34.766Z,36.50
2018-03-02T12:43:34.737Z,38.30
2018-03-02T12:44:34.870Z,38.70
2018-03-02T12:45:34.702Z,38.20
2018-03-02T12:46:34.675Z,38.30
2018-03-02T12:47:34.657Z,37.70
2018-03-02T12:48:34.641Z,38.60
2018-03-02T12:49:34.619Z,38.10
2018-03-02T12:50:34.609Z,38.10
2018-03-02T12:51:34.586Z,40.20
2018-03-02T12:52:34.567Z,39.00